createdAt,value
2023-01-11T00:00:25.777Z,1.33
2023-01-11T00:02:59.933Z,1.85
2023-01-11T00:05:26.575Z,1.30
2023-01-11T00:07:53.279Z,3.40
2023-01-11T00:10:20.026Z,0.80
2023-01-11T00:12:47.071Z,0.70
2023-01-11T00:15:13.884Z,0.40
2023-01-11T00:17:41.544Z,0.52
2023-01-11T00:20:10.092Z,1.13
2023-01-11T00:22:36.915Z,2.42
2023-01-11T00:25:03.965Z,2.22
2023-01-11T00:27:30.661Z,1.60
2023-01-11T00:29:57.390Z,1.08
2023-01-11T00:32:24.246Z,1.50
2023-01-11T00:34:50.967Z,1.45
2023-01-11T00:37:17.562Z,1.35
2023-01-11T00:39:44.209Z,1.02
2023-01-11T00:42:32.168Z,1.15
2023-01-11T00:45:17.666Z,1.80
2023-01-11T00:48:01.000Z,1.85
2023-01-11T00:50:30.244Z,1.43
2023-01-11T00:52:57.647Z,1.00
2023-01-11T00:55:24.451Z,0.73
2023-01-11T00:57:51.140Z,0.95
2023-01-11T01:00:19.052Z,0.70
2023-01-11T01:02:46.087Z,0.47
2023-01-11T01:05:12.831Z,0.70
2023-01-11T01:07:39.515Z,0.57
2023-01-11T01:10:08.063Z,0.28
2023-01-11T01:12:53.576Z,0.50
2023-01-11T01:15:20.443Z,0.30
2023-01-11T01:17:47.258Z,0.50
2023-01-11T01:20:14.827Z,0.40
2023-01-11T01:22:41.883Z,0.47
2023-01-11T01:25:08.822Z,0.30
2023-01-11T01:27:35.583Z,0.40
2023-01-11T01:30:02.315Z,0.65
2023-01-11T01:32:29.015Z,0.60
2023-01-11T01:34:55.658Z,0.50
2023-01-11T01:37:22.249Z,0.40
2023-01-11T01:39:48.883Z,0.70
2023-01-11T01:42:16.745Z,0.60
2023-01-11T01:45:04.255Z,0.65
2023-01-11T01:47:38.697Z,1.08
2023-01-11T01:50:12.573Z,0.60
2023-01-11T01:52:39.225Z,0.93
2023-01-11T01:55:08.517Z,0.32
2023-01-11T01:57:35.594Z,1.65
2023-01-11T02:00:05.590Z,1.45
2023-01-11T02:02:32.229Z,3.55
2023-01-11T02:04:58.913Z,3.95
2023-01-11T02:07:28.887Z,2.38
2023-01-11T02:10:10.636Z,2.42
2023-01-11T02:12:40.489Z,1.30
2023-01-11T02:15:08.033Z,0.77
2023-01-11T02:17:34.697Z,1.48
2023-01-11T02:20:08.586Z,0.88
2023-01-11T02:25:32.086Z,1.17
2023-01-11T02:28:01.464Z,0.90
2023-01-11T02:30:46.914Z,1.20
2023-01-11T02:33:23.355Z,1.05
2023-01-11T02:36:13.624Z,0.93
2023-01-11T02:38:46.424Z,0.75
2023-01-11T02:41:59.226Z,1.00
2023-01-11T02:44:46.704Z,0.60
2023-01-11T02:47:24.863Z,0.52
2023-01-11T02:50:03.781Z,0.50
2023-01-11T02:53:01.263Z,0.40
2023-01-11T02:55:31.124Z,0.43
2023-01-11T02:57:58.974Z,0.45
2023-01-11T03:00:25.634Z,0.50
2023-01-11T03:03:08.223Z,0.30
2023-01-11T03:05:35.854Z,0.43
2023-01-11T03:08:05.498Z,0.90
2023-01-11T03:11:02.429Z,1.75
2023-01-11T03:13:39.452Z,2.80
2023-01-11T03:16:14.901Z,2.35
2023-01-11T03:19:06.078Z,1.13
2023-01-11T03:21:58.674Z,1.40
2023-01-11T03:24:33.860Z,1.30
2023-01-11T03:27:06.102Z,1.00
2023-01-11T03:29:49.555Z,1.10
2023-01-11T03:32:16.371Z,1.45
2023-01-11T03:34:55.175Z,3.10
2023-01-11T03:37:50.728Z,1.10
2023-01-11T03:40:22.886Z,1.10
2023-01-11T03:43:10.100Z,1.40
2023-01-11T03:45:47.455Z,1.10
2023-01-11T03:48:20.268Z,1.20
2023-01-11T03:50:46.962Z,0.68
2023-01-11T03:53:13.542Z,0.60
2023-01-11T03:55:41.583Z,0.80
2023-01-11T03:58:09.084Z,1.23
2023-01-11T04:00:36.347Z,4.70
2023-01-11T04:03:03.145Z,3.20
2023-01-11T04:05:29.796Z,1.30
2023-01-11T04:07:56.508Z,1.88
2023-01-11T04:10:23.335Z,0.80
2023-01-11T04:12:50.055Z,0.40
2023-01-11T04:15:16.893Z,0.70
2023-01-11T04:17:43.585Z,0.60
2023-01-11T04:20:10.724Z,0.40
2023-01-11T04:22:37.466Z,0.50
2023-01-11T04:25:04.386Z,6.72
2023-01-11T04:27:30.980Z,3.55
2023-01-11T04:29:57.675Z,1.90
2023-01-11T04:32:24.431Z,1.52
2023-01-11T04:34:51.131Z,1.92
2023-01-11T04:37:17.719Z,1.65
2023-01-11T04:39:44.387Z,4.38
2023-01-11T04:42:21.164Z,3.45
2023-01-11T04:44:49.062Z,3.53
2023-01-11T04:47:20.202Z,3.13
2023-01-11T04:49:47.090Z,3.80
2023-01-11T04:52:15.000Z,4.28
2023-01-11T04:54:41.775Z,5.07
2023-01-11T04:57:10.831Z,5.68
2023-01-11T04:59:37.516Z,5.63
2023-01-11T05:02:04.254Z,7.38
2023-01-11T05:04:31.046Z,5.80
2023-01-11T05:06:57.870Z,5.95
2023-01-11T05:09:24.441Z,4.45
2023-01-11T05:11:51.131Z,3.03
2023-01-11T05:14:17.980Z,1.52
2023-01-11T05:16:44.702Z,1.70
2023-01-11T05:19:11.642Z,35.05
2023-01-11T05:21:40.062Z,33.72
2023-01-11T05:24:08.443Z,14.80
2023-01-11T05:26:36.835Z,7.07
2023-01-11T05:29:05.728Z,7.72
2023-01-11T05:31:34.796Z,18.27
2023-01-11T05:34:01.514Z,7.93
2023-01-11T05:36:28.363Z,9.27
2023-01-11T05:38:55.723Z,13.63
2023-01-11T05:41:23.632Z,20.20
2023-01-11T05:44:09.296Z,16.88
2023-01-11T05:46:37.082Z,11.85
2023-01-11T05:49:03.885Z,10.73
2023-01-11T05:51:30.905Z,11.05
2023-01-11T05:53:57.825Z,10.65
2023-01-11T05:56:24.519Z,11.90
2023-01-11T05:58:51.338Z,25.48
2023-01-11T06:01:18.831Z,6.97
2023-01-11T06:03:45.837Z,5.20
2023-01-11T06:06:13.040Z,3.67
2023-01-11T06:08:39.669Z,3.95
2023-01-11T06:11:06.356Z,2.55
2023-01-11T06:13:33.962Z,1.40
2023-01-11T06:16:19.550Z,1.50
2023-01-11T06:18:48.332Z,1.25
2023-01-11T06:21:15.264Z,1.00
2023-01-11T06:23:44.153Z,2.67
2023-01-11T06:26:15.259Z,2.03
2023-01-11T06:28:42.095Z,1.98
2023-01-11T06:31:08.902Z,1.35
2023-01-11T06:33:36.301Z,0.95
2023-01-11T06:36:08.063Z,0.93
2023-01-11T06:38:35.239Z,0.80
2023-01-11T06:41:02.760Z,0.82
2023-01-11T06:43:29.641Z,0.90
2023-01-11T06:45:56.511Z,1.45
2023-01-11T06:48:23.434Z,5.07
2023-01-11T06:50:50.811Z,16.50
2023-01-11T06:53:17.419Z,13.73
2023-01-11T06:55:44.244Z,4.35
2023-01-11T06:58:10.926Z,1.70
2023-01-11T07:00:37.845Z,2.22
2023-01-11T07:03:05.304Z,6.85
2023-01-11T07:05:35.572Z,7.22
2023-01-11T07:08:02.544Z,8.95
2023-01-11T07:10:29.325Z,11.23
2023-01-11T07:12:55.999Z,10.98
2023-01-11T07:15:22.674Z,13.77
2023-01-11T07:17:54.981Z,10.25
2023-01-11T07:20:22.366Z,10.93
2023-01-11T07:22:49.305Z,8.20
2023-01-11T07:25:15.903Z,7.05
2023-01-11T07:27:42.597Z,5.68
2023-01-11T07:30:09.997Z,4.45
2023-01-11T07:32:36.768Z,3.72
2023-01-11T07:35:03.476Z,3.70
2023-01-11T07:37:32.767Z,3.30
2023-01-11T07:39:59.471Z,3.63
2023-01-11T07:42:44.872Z,4.68
2023-01-11T07:45:11.595Z,4.13
2023-01-11T07:47:38.368Z,4.80
2023-01-11T07:50:05.513Z,6.30
2023-01-11T07:52:32.196Z,16.63
2023-01-11T07:55:02.650Z,19.45
2023-01-11T07:57:30.279Z,12.40
2023-01-11T07:59:56.937Z,15.07
2023-01-11T08:02:23.721Z,16.67
2023-01-11T08:04:50.569Z,14.43
2023-01-11T08:07:17.129Z,13.52
2023-01-11T08:09:43.764Z,8.95
2023-01-11T08:12:28.710Z,7.95
2023-01-11T08:14:55.490Z,5.65
2023-01-11T08:17:22.205Z,3.90
2023-01-11T08:19:48.867Z,4.20
2023-01-11T08:22:15.555Z,3.60
2023-01-11T08:24:42.314Z,2.70
2023-01-11T08:27:09.043Z,17.77
2023-01-11T08:29:35.750Z,9.27
2023-01-11T08:32:02.444Z,4.57
2023-01-11T08:34:29.208Z,38.50
2023-01-11T08:37:01.916Z,3.03
2023-01-11T08:39:31.043Z,2.75
2023-01-11T08:42:01.185Z,1.70
2023-01-11T08:44:35.264Z,1.50
2023-01-11T08:47:02.996Z,3.85
2023-01-11T08:49:30.642Z,2.42
2023-01-11T08:51:57.433Z,6.47
2023-01-11T08:54:25.004Z,2.20
2023-01-11T08:56:51.693Z,10.90
2023-01-11T08:59:19.974Z,2.22
2023-01-11T09:01:47.308Z,1.85
2023-01-11T09:04:24.216Z,1.20
2023-01-11T09:06:52.944Z,1.20
2023-01-11T09:09:19.688Z,1.50
2023-01-11T09:11:55.236Z,1.80
2023-01-11T09:14:22.696Z,8.82
2023-01-11T09:16:49.398Z,3.15
2023-01-11T09:19:16.016Z,1.77
2023-01-11T09:21:43.198Z,5.28
2023-01-11T09:24:09.890Z,4.97
2023-01-11T09:26:37.500Z,5.20
2023-01-11T09:29:05.061Z,18.60
2023-01-11T09:31:31.814Z,3.95
2023-01-11T09:33:58.593Z,3.15
2023-01-11T09:36:27.800Z,3.28
2023-01-11T09:38:57.424Z,2.92
2023-01-11T09:41:27.319Z,1.67
2023-01-11T09:44:03.929Z,3.55
2023-01-11T09:46:30.652Z,1.98
2023-01-11T09:48:59.551Z,1.25
2023-01-11T09:51:35.895Z,1.10
2023-01-11T09:54:06.007Z,1.10
2023-01-11T09:56:51.233Z,18.65
2023-01-11T09:59:44.204Z,1.60
2023-01-11T10:02:24.677Z,1.00
2023-01-11T10:05:31.957Z,1.00
2023-01-11T10:18:30.325Z,1.33
2023-01-11T10:18:30.457Z,1.00
2023-01-11T10:19:57.956Z,1.40
2023-01-11T10:22:32.538Z,1.25
2023-01-11T10:25:11.609Z,1.60
2023-01-11T10:27:40.401Z,1.10
2023-01-11T10:30:35.906Z,1.20
2023-01-11T10:33:18.723Z,1.60
2023-01-11T10:36:06.040Z,1.77
2023-01-11T10:39:01.376Z,1.88
2023-01-11T10:41:57.535Z,2.33
2023-01-11T10:44:35.775Z,2.05
2023-01-11T10:47:02.488Z,2.25
2023-01-11T10:49:49.751Z,2.10
2023-01-11T10:52:29.324Z,4.57
2023-01-11T10:54:57.482Z,2.05
2023-01-11T10:57:27.107Z,5.50
2023-01-11T11:00:16.949Z,3.90
2023-01-11T11:02:49.317Z,3.05
2023-01-11T11:05:27.874Z,2.40
2023-01-11T11:08:31.981Z,3.92
2023-01-11T11:11:05.824Z,2.70
2023-01-11T11:13:38.503Z,2.80
2023-01-11T11:16:23.277Z,3.35
2023-01-11T11:18:54.459Z,3.08
2023-01-11T11:21:28.506Z,3.45
2023-01-11T11:26:23.246Z,5.47
2023-01-11T11:29:01.220Z,6.90
2023-01-11T11:31:28.526Z,6.97
2023-01-11T11:33:55.232Z,4.88
2023-01-11T11:36:21.938Z,4.60
2023-01-11T11:39:18.863Z,4.03
2023-01-11T11:42:07.065Z,2.80
2023-01-11T11:44:33.811Z,3.30
2023-01-11T11:47:05.419Z,3.08
2023-01-11T11:49:36.235Z,2.75
2023-01-11T11:52:23.709Z,3.08
2023-01-11T11:54:52.934Z,3.45
2023-01-11T11:57:19.515Z,5.68
2023-01-11T11:59:47.802Z,4.50
2023-01-11T12:02:26.483Z,6.80
2023-01-11T12:04:53.262Z,3.65
2023-01-11T12:07:21.135Z,3.10
2023-01-11T12:09:57.564Z,2.05
2023-01-11T12:12:27.369Z,2.40
2023-01-11T12:15:15.967Z,2.75
2023-01-11T12:17:42.683Z,2.65
2023-01-11T12:20:21.332Z,6.13
2023-01-11T12:22:48.615Z,2.60
2023-01-11T12:25:15.336Z,2.70
2023-01-11T12:28:01.363Z,4.90
2023-01-11T12:30:52.172Z,3.17
2023-01-11T12:33:44.407Z,1.80
2023-01-11T12:36:32.721Z,2.25
2023-01-11T12:39:17.968Z,2.85
2023-01-11T12:42:26.142Z,3.75
2023-01-11T12:45:04.762Z,3.42
2023-01-11T12:47:40.568Z,3.35
2023-01-11T12:50:25.022Z,2.83
2023-01-11T12:53:00.714Z,2.60
2023-01-11T12:55:58.060Z,2.03
2023-01-11T12:58:57.557Z,2.65
2023-01-11T13:01:39.304Z,2.58
2023-01-11T13:04:40.686Z,4.40
2023-01-11T13:07:21.066Z,2.90
2023-01-11T13:10:06.622Z,3.53
2023-01-11T13:12:49.372Z,3.22
2023-01-11T13:15:21.444Z,3.10
2023-01-11T13:17:51.815Z,2.78
2023-01-11T13:20:27.439Z,2.55
2023-01-11T13:23:26.041Z,2.40
2023-01-11T13:25:52.784Z,2.30
2023-01-11T13:28:23.890Z,2.58
2023-01-11T13:30:50.915Z,2.88
2023-01-11T13:33:20.733Z,3.28
2023-01-11T13:36:23.131Z,3.53
2023-01-11T13:38:56.584Z,2.67
2023-01-11T13:41:25.820Z,3.53
2023-01-11T13:44:06.811Z,3.83
2023-01-11T13:46:48.079Z,3.90
2023-01-11T13:49:18.456Z,3.83
2023-01-11T13:51:58.765Z,3.50
2023-01-11T13:54:50.409Z,3.22
2023-01-11T13:57:57.079Z,3.38
2023-01-11T14:00:38.708Z,4.70
2023-01-11T14:03:11.386Z,4.45
2023-01-11T14:06:03.109Z,4.32
2023-01-11T14:09:08.224Z,5.18
2023-01-11T14:11:44.537Z,5.68
2023-01-11T14:14:29.535Z,4.90
2023-01-11T14:17:02.409Z,5.55
2023-01-11T14:19:46.420Z,6.53
2023-01-11T14:22:20.576Z,5.68
2023-01-11T14:25:05.648Z,5.22
2023-01-11T14:28:09.775Z,9.40
2023-01-11T14:31:04.522Z,5.72
2023-01-11T14:33:37.176Z,7.00
2023-01-11T14:36:03.767Z,4.43
2023-01-11T14:39:06.338Z,2.70
2023-01-11T14:41:41.925Z,3.25
2023-01-11T14:44:18.000Z,2.78
2023-01-11T14:47:00.851Z,3.05
2023-01-11T14:49:51.792Z,2.40
2023-01-11T14:52:31.121Z,2.92
2023-01-11T14:55:07.000Z,3.90
2023-01-11T14:57:41.204Z,4.47
2023-01-11T15:00:19.837Z,2.90
2023-01-11T15:02:47.219Z,4.03
2023-01-11T15:05:44.982Z,3.60
2023-01-11T15:08:14.702Z,3.63
2023-01-11T15:10:55.804Z,6.70
2023-01-11T15:13:49.972Z,8.60
2023-01-11T15:16:38.020Z,19.25
2023-01-11T15:19:09.501Z,9.05
2023-01-11T15:21:41.020Z,26.35
2023-01-11T15:24:18.513Z,20.02
2023-01-11T15:26:48.498Z,83.93
2023-01-11T15:29:41.858Z,38.88
2023-01-11T15:32:33.198Z,11.10
2023-01-11T15:35:31.567Z,10.52
2023-01-11T15:38:07.493Z,5.47
2023-01-11T15:40:36.880Z,2.90
2023-01-11T15:43:12.569Z,7.35
2023-01-11T15:46:16.703Z,3.88
2023-01-11T15:48:59.797Z,2.42
2023-01-11T15:51:26.332Z,2.05
2023-01-11T15:54:01.293Z,2.33
2023-01-11T15:56:31.459Z,3.03
2023-01-11T15:59:19.914Z,2.78
2023-01-11T16:02:08.067Z,3.75
2023-01-11T16:05:06.269Z,5.10
2023-01-11T16:07:54.852Z,22.80
2023-01-11T16:10:59.174Z,2.20
2023-01-11T16:13:37.956Z,2.50
2023-01-11T16:16:26.877Z,4.97
2023-01-11T16:18:57.979Z,4.55
2023-01-11T16:21:31.765Z,4.10
2023-01-11T16:23:58.512Z,7.25
2023-01-11T16:26:25.230Z,8.02
2023-01-11T16:28:54.810Z,13.35
2023-01-11T16:31:21.542Z,12.13
2023-01-11T16:33:49.819Z,9.10
2023-01-11T16:36:21.292Z,14.15
2023-01-11T16:39:00.045Z,13.90
2023-01-11T16:41:28.588Z,17.45
2023-01-11T16:44:06.319Z,12.20
2023-01-11T16:47:03.998Z,12.50
2023-01-11T16:49:30.603Z,15.48
2023-01-11T16:52:00.432Z,14.88
2023-01-11T16:54:31.812Z,16.40
2023-01-11T16:56:59.455Z,20.45
2023-01-11T16:59:30.527Z,22.45
2023-01-11T17:01:59.101Z,29.88
2023-01-11T17:04:30.689Z,21.63
2023-01-11T17:06:58.100Z,19.77
2023-01-11T17:09:26.026Z,21.20
2023-01-11T17:11:52.909Z,27.75
2023-01-11T17:14:56.928Z,46.03
2023-01-11T17:17:23.625Z,33.57
2023-01-11T17:19:50.640Z,26.88
2023-01-11T17:22:22.528Z,13.15
2023-01-11T17:25:00.266Z,22.77
2023-01-11T17:27:35.736Z,19.38
2023-01-11T17:30:02.850Z,18.20
2023-01-11T17:32:37.162Z,17.17
2023-01-11T17:35:11.113Z,20.90
2023-01-11T17:40:04.580Z,18.08
2023-01-11T17:42:49.787Z,24.55
2023-01-11T17:45:23.898Z,14.85
2023-01-11T17:47:51.824Z,11.80
2023-01-11T17:50:22.504Z,10.77
2023-01-11T17:52:54.687Z,11.48
2023-01-11T17:55:23.257Z,9.05
2023-01-11T17:58:08.556Z,9.25
2023-01-11T18:00:35.334Z,16.17
2023-01-11T18:03:10.628Z,16.65
2023-01-11T18:05:37.263Z,15.40
2023-01-11T18:08:09.647Z,24.13
2023-01-11T18:10:38.164Z,18.83
2023-01-11T18:13:04.788Z,32.33
2023-01-11T18:15:34.170Z,53.00
2023-01-11T18:18:01.053Z,34.88
2023-01-11T18:20:40.693Z,32.90
2023-01-11T18:23:18.779Z,31.40
2023-01-11T18:25:46.151Z,28.70
2023-01-11T18:28:20.919Z,41.92
2023-01-11T18:30:54.450Z,18.52
2023-01-11T18:33:23.398Z,15.15
2023-01-11T18:35:51.910Z,15.65
2023-01-11T18:38:20.044Z,26.75
2023-01-11T18:40:47.124Z,21.70
2023-01-11T18:43:13.844Z,20.45
2023-01-11T18:45:41.349Z,16.05
2023-01-11T18:48:12.072Z,19.60
2023-01-11T18:50:39.259Z,21.40
2023-01-11T18:53:05.958Z,19.77
2023-01-11T18:55:32.581Z,16.15
2023-01-11T18:57:59.257Z,16.98
2023-01-11T19:00:26.091Z,15.38
2023-01-11T19:02:52.704Z,15.18
2023-01-11T19:05:19.358Z,16.05
2023-01-11T19:07:46.096Z,15.02
2023-01-11T19:10:17.548Z,17.60
2023-01-11T19:12:44.807Z,11.45
2023-01-11T19:15:12.476Z,10.90
2023-01-11T19:17:39.363Z,8.93
2023-01-11T19:20:09.143Z,9.43
2023-01-11T19:22:37.013Z,8.75
2023-01-11T19:25:03.989Z,9.35
2023-01-11T19:27:30.672Z,8.70
2023-01-11T19:29:58.222Z,7.93
2023-01-11T19:32:25.841Z,8.63
2023-01-11T19:34:53.042Z,7.55
2023-01-11T19:37:19.727Z,7.57
2023-01-11T19:39:46.539Z,7.20
2023-01-11T19:42:13.210Z,7.18
2023-01-11T19:44:40.056Z,6.65
2023-01-11T19:47:12.564Z,6.70
2023-01-11T19:49:40.190Z,7.38
2023-01-11T19:52:13.269Z,12.93
2023-01-11T19:54:43.796Z,10.18
2023-01-11T19:57:15.524Z,8.38
2023-01-11T19:59:42.330Z,7.68
2023-01-11T20:02:13.596Z,6.93
2023-01-11T20:04:40.791Z,6.85
2023-01-11T20:07:07.989Z,7.57
2023-01-11T20:09:37.520Z,7.10
2023-01-11T20:12:08.370Z,13.88
2023-01-11T20:14:35.298Z,12.32
2023-01-11T20:17:02.184Z,10.23
2023-01-11T20:19:28.990Z,14.57
2023-01-11T20:21:56.572Z,16.40
2023-01-11T20:24:29.706Z,23.23
2023-01-11T20:26:57.597Z,28.63
2023-01-11T20:29:24.257Z,18.52
2023-01-11T20:31:51.015Z,18.40
2023-01-11T20:34:17.862Z,14.95
2023-01-11T20:36:44.649Z,13.23
2023-01-11T20:39:11.387Z,13.57
2023-01-11T20:41:47.033Z,16.15
2023-01-11T20:44:16.152Z,19.95
2023-01-11T20:46:43.062Z,24.50
2023-01-11T20:49:09.721Z,10.48
2023-01-11T20:51:36.573Z,8.43
2023-01-11T20:54:04.401Z,7.47
2023-01-11T20:56:31.145Z,7.90
2023-01-11T20:58:57.789Z,7.45
2023-01-11T21:01:27.418Z,7.40
2023-01-11T21:04:01.808Z,8.13
2023-01-11T21:06:28.792Z,9.88
2023-01-11T21:08:56.327Z,11.07
2023-01-11T21:11:23.108Z,12.55
2023-01-11T21:13:53.528Z,16.30
2023-01-11T21:16:20.540Z,17.05
2023-01-11T21:18:47.338Z,15.55
2023-01-11T21:21:17.844Z,16.88
2023-01-11T21:23:45.418Z,15.63
2023-01-11T21:26:12.539Z,13.20
2023-01-11T21:28:39.955Z,11.60
2023-01-11T21:31:07.173Z,11.13
2023-01-11T21:33:33.958Z,10.18
2023-01-11T21:36:04.648Z,9.63
2023-01-11T21:38:32.194Z,12.80
2023-01-11T21:41:09.188Z,21.63
2023-01-11T21:43:36.036Z,10.70
2023-01-11T21:46:03.156Z,11.10
2023-01-11T21:48:29.853Z,12.00
2023-01-11T21:50:56.667Z,12.50
2023-01-11T21:53:23.361Z,29.08
2023-01-11T21:55:50.052Z,13.60
2023-01-11T21:58:19.811Z,7.68
2023-01-11T22:00:46.575Z,11.35
2023-01-11T22:03:13.231Z,13.27
2023-01-11T22:05:39.966Z,12.32
2023-01-11T22:08:06.658Z,8.18
2023-01-11T22:10:33.805Z,8.30
2023-01-11T22:13:00.662Z,7.38
2023-01-11T22:15:27.300Z,6.65
2023-01-11T22:17:54.043Z,7.30
2023-01-11T22:20:20.676Z,7.60
2023-01-11T22:22:47.385Z,20.60
2023-01-11T22:25:14.039Z,28.40
2023-01-11T22:27:40.998Z,24.48
2023-01-11T22:30:08.443Z,14.23
2023-01-11T22:32:35.131Z,13.80
2023-01-11T22:35:01.799Z,19.40
2023-01-11T22:37:28.491Z,17.80
2023-01-11T22:39:55.111Z,6.70
2023-01-11T22:42:21.800Z,5.75
2023-01-11T22:44:48.643Z,6.35
2023-01-11T22:47:15.454Z,6.43
2023-01-11T22:49:42.065Z,7.28
2023-01-11T22:52:08.757Z,6.05
2023-01-11T22:54:35.562Z,5.57
2023-01-11T22:57:02.212Z,5.85
2023-01-11T22:59:28.936Z,6.35
2023-01-11T23:01:55.580Z,7.53
2023-01-11T23:04:22.341Z,7.75
2023-01-11T23:06:49.119Z,7.43
2023-01-11T23:09:16.869Z,7.18
2023-01-11T23:12:02.383Z,7.72
2023-01-11T23:14:30.219Z,7.65
2023-01-11T23:16:59.282Z,8.73
2023-01-11T23:19:25.908Z,9.75
2023-01-11T23:21:52.649Z,8.07
2023-01-11T23:24:19.249Z,6.85
2023-01-11T23:26:46.188Z,7.75
2023-01-11T23:29:13.102Z,7.68
2023-01-11T23:31:39.863Z,12.98
2023-01-11T23:34:09.503Z,13.27
2023-01-11T23:36:37.699Z,12.65
2023-01-11T23:39:05.577Z,11.30
2023-01-11T23:41:50.742Z,11.60
2023-01-11T23:44:17.614Z,9.95
2023-01-11T23:47:03.567Z,9.05
2023-01-11T23:49:30.828Z,12.82
2023-01-11T23:51:57.590Z,8.82
2023-01-11T23:54:29.279Z,10.35
2023-01-11T23:56:56.483Z,8.38
2023-01-11T23:59:23.095Z,9.75
